Horton, AL (35980)

2:31 AM CDT on July 29, 2016 (GMT -0500)
Albertville | | Change Station

Elev 1033 ft 34.23 °N, 86.26 °W | Updated 16 minutes ago

Overcast
Overcast
73 °F
Feels Like 73 °F
N
0
Wind Variable Wind from North

Today
High -- | Low -- °F
--% Chance of Precip.
Yesterday
High -- | Low -- °F
Precip. -- in
Pressure 30.03 in
Visibility 5.0 miles
Clouds Mostly Cloudy 200 ft
Mostly Cloudy 1700 ft
Overcast 9500 ft
Dew Point 73 °F
Humidity 100%
Rainfall 0.00 in
Snow Depth Not available.
5:54 AM 7:48 PM
Waning Crescent, 24% visible
METAR K8A0 290715Z AUTO 00000KT 5SM BR BKN002 BKN017 OVC095 23/23 A3003 RMK AO2
Pressure 30.03 in
Visibility 5.0 miles
Clouds Mostly Cloudy 200 ft
Mostly Cloudy 1700 ft
Overcast 9500 ft
Dew Point 73 °F
Humidity 100%
Rainfall 0.00 in
Snow Depth Not available.
5:54 AM 7:48 PM
Waning Crescent, 24% visible
METAR K8A0 290715Z AUTO 00000KT 5SM BR BKN002 BKN017 OVC095 23/23 A3003 RMK AO2

10-Day Weather Forecast

Almanac

Astronomy

Jul. 29, 2016 Rise Set
Actual Time
Civil Twilight
Nautical Twilight
Astronomical Twilight
Moon
Length of Visible Light
Length of Day
Tomorrow will be .
, % of the Moon is Illuminated

Today's Extremes

State Highs State Lows

Community

WunderPhotos

Upload Photos

1,928,302 photos uploaded!

WunderBlog® & News

Nearby

Air Quality

  Air Quality AQ Index Pollutant
Not available.

Snow Depth

Station Depth Elevation

Earthquake Activity

City Distance Mag. Time & Date
Minimum magnitude displayed is 2.5.

Coastal Water Temperatures

Place Temperature

Stations

Nearby Weather Stations

Station Location Temp. Windchill Dew Point Humidity Wind Precip. Elev Updated Type
                   

Watches & Warnings

There are currently no watches in effect.